createdAt,value
2022-11-03T00:02:07.119Z,8.75
2022-11-03T00:04:33.908Z,7.78
2022-11-03T00:07:00.632Z,12.65
2022-11-03T00:09:27.643Z,7.82
2022-11-03T00:11:55.614Z,14.02
2022-11-03T00:14:22.294Z,6.75
2022-11-03T00:16:49.562Z,6.15
2022-11-03T00:19:17.435Z,4.60
2022-11-03T00:21:44.846Z,6.30
2022-11-03T00:24:12.182Z,6.65
2022-11-03T00:26:39.622Z,7.05
2022-11-03T00:29:12.032Z,7.80
2022-11-03T00:31:41.009Z,6.68
2022-11-03T00:34:08.565Z,6.55
2022-11-03T00:36:37.864Z,6.18
2022-11-03T00:39:05.504Z,8.07
2022-11-03T00:41:32.921Z,4.70
2022-11-03T00:43:59.890Z,8.07
2022-11-03T00:46:27.319Z,9.60
2022-11-03T00:48:54.029Z,9.25
2022-11-03T00:51:26.166Z,5.68
2022-11-03T00:53:54.631Z,4.80
2022-11-03T00:56:26.591Z,7.22
2022-11-03T00:58:54.472Z,4.45
2022-11-03T01:01:24.223Z,5.78
2022-11-03T01:04:11.996Z,6.22
2022-11-03T01:06:50.628Z,4.90
2022-11-03T01:09:23.220Z,4.78
2022-11-03T01:11:57.592Z,11.80
2022-11-03T01:14:26.997Z,5.97
2022-11-03T01:16:53.830Z,7.35
2022-11-03T01:19:20.640Z,7.85
2022-11-03T01:21:47.391Z,5.32
2022-11-03T01:24:15.813Z,4.07
2022-11-03T01:26:42.505Z,5.38
2022-11-03T01:29:09.424Z,9.63
2022-11-03T01:31:36.186Z,9.63
2022-11-03T01:34:03.416Z,5.63
2022-11-03T01:36:30.176Z,8.45
2022-11-03T01:38:56.989Z,4.88
2022-11-03T01:41:27.208Z,8.55
2022-11-03T01:44:09.062Z,8.18
2022-11-03T01:46:52.302Z,5.18
2022-11-03T01:49:30.894Z,15.68
2022-11-03T01:52:20.293Z,31.35
2022-11-03T01:54:53.796Z,18.95
2022-11-03T01:57:30.411Z,17.70
2022-11-03T01:59:59.246Z,17.77
2022-11-03T02:02:27.286Z,33.72
2022-11-03T02:04:56.374Z,18.75
2022-11-03T02:07:55.288Z,12.43
2022-11-03T02:10:24.442Z,10.60
2022-11-03T02:12:51.312Z,17.40
2022-11-03T02:15:21.639Z,14.25
2022-11-03T02:17:50.862Z,14.25
2022-11-03T02:20:24.888Z,17.63
2022-11-03T02:23:08.284Z,11.98
2022-11-03T02:25:55.439Z,17.15
2022-11-03T02:28:29.187Z,25.30
2022-11-03T02:31:16.461Z,11.00
2022-11-03T02:33:52.537Z,10.07
2022-11-03T02:36:25.119Z,12.18
2022-11-03T02:39:06.985Z,16.33
2022-11-03T02:41:36.850Z,10.40
2022-11-03T02:44:05.483Z,10.73
2022-11-03T02:46:34.189Z,9.50
2022-11-03T02:49:00.943Z,23.83
2022-11-03T02:51:27.660Z,13.68
2022-11-03T02:54:02.854Z,12.18
2022-11-03T02:56:34.949Z,5.85
2022-11-03T02:59:15.723Z,11.77
2022-11-03T03:01:52.656Z,7.68
2022-11-03T03:04:54.857Z,10.52
2022-11-03T03:07:30.351Z,13.57
2022-11-03T03:10:11.002Z,10.23
2022-11-03T03:12:40.589Z,12.40
2022-11-03T03:15:08.887Z,13.05
2022-11-03T03:17:46.295Z,11.32
2022-11-03T03:20:25.505Z,13.60
2022-11-03T03:23:00.379Z,8.98
2022-11-03T03:25:34.579Z,7.18
2022-11-03T03:28:07.178Z,8.15
2022-11-03T03:30:36.154Z,5.38
2022-11-03T03:33:05.690Z,5.90
2022-11-03T03:35:34.850Z,4.53
2022-11-03T03:38:10.727Z,7.15
2022-11-03T03:40:41.077Z,5.95
2022-11-03T03:43:11.867Z,5.70
2022-11-03T03:45:39.290Z,6.82
2022-11-03T03:48:07.229Z,4.80
2022-11-03T03:50:38.604Z,4.43
2022-11-03T03:53:09.657Z,4.15
2022-11-03T03:55:39.110Z,5.22
2022-11-03T03:58:06.514Z,6.90
2022-11-03T04:00:33.781Z,5.22
2022-11-03T04:03:00.542Z,5.97
2022-11-03T04:05:27.844Z,7.43
2022-11-03T04:07:54.686Z,5.38
2022-11-03T04:10:23.321Z,6.97
2022-11-03T04:13:09.325Z,8.90
2022-11-03T04:16:02.164Z,5.97
2022-11-03T04:18:47.576Z,6.15
2022-11-03T04:21:33.075Z,3.70
2022-11-03T04:24:00.477Z,6.80
2022-11-03T04:26:28.607Z,21.40
2022-11-03T04:28:56.347Z,3.20
2022-11-03T04:31:23.235Z,4.65
2022-11-03T04:33:50.461Z,4.80
2022-11-03T04:36:22.713Z,5.85
2022-11-03T04:38:51.072Z,8.25
2022-11-03T04:41:32.911Z,8.93
2022-11-03T04:43:59.789Z,8.52
2022-11-03T04:46:28.574Z,7.22
2022-11-03T04:48:58.947Z,6.55
2022-11-03T04:51:29.885Z,8.90
2022-11-03T04:54:03.882Z,7.63
2022-11-03T04:56:30.717Z,6.43
2022-11-03T04:58:58.377Z,7.10
2022-11-03T05:01:25.446Z,8.10
2022-11-03T05:03:54.322Z,7.40
2022-11-03T05:06:29.517Z,9.23
2022-11-03T05:09:00.328Z,5.50
2022-11-03T05:11:37.391Z,7.10
2022-11-03T05:14:20.499Z,9.85
2022-11-03T05:16:48.902Z,8.82
2022-11-03T05:19:21.059Z,11.82
2022-11-03T05:21:50.449Z,9.88
2022-11-03T05:24:21.077Z,13.95
2022-11-03T05:26:49.470Z,12.18
2022-11-03T05:29:19.655Z,9.05
2022-11-03T05:31:52.104Z,12.27
2022-11-03T05:35:02.398Z,7.60
2022-11-03T05:37:32.715Z,10.50
2022-11-03T05:40:03.322Z,9.55
2022-11-03T05:42:36.540Z,8.40
2022-11-03T05:45:14.479Z,12.23
2022-11-03T05:47:41.453Z,10.57
2022-11-03T05:50:17.379Z,19.30
2022-11-03T05:52:45.625Z,12.98
2022-11-03T05:55:27.979Z,13.98
2022-11-03T05:57:58.759Z,14.05
2022-11-03T06:00:32.213Z,15.82
2022-11-03T06:03:00.691Z,17.00
2022-11-03T06:05:28.364Z,19.65
2022-11-03T06:07:59.581Z,19.27
2022-11-03T06:10:33.951Z,21.85
2022-11-03T06:13:06.160Z,14.70
2022-11-03T06:15:35.260Z,11.10
2022-11-03T06:18:22.330Z,15.13
2022-11-03T06:20:53.950Z,13.82
2022-11-03T06:23:21.857Z,16.70
2022-11-03T06:25:51.277Z,19.60
2022-11-03T06:28:21.461Z,20.23
2022-11-03T06:30:49.018Z,19.92
2022-11-03T06:33:35.207Z,16.55
2022-11-03T06:36:11.269Z,16.90
2022-11-03T06:38:37.994Z,15.30
2022-11-03T06:41:04.830Z,18.75
2022-11-03T06:43:42.007Z,22.10
2022-11-03T06:46:23.869Z,24.77
2022-11-03T06:48:53.616Z,16.98
2022-11-03T06:51:23.774Z,28.45
2022-11-03T06:53:52.292Z,17.77
2022-11-03T06:56:22.394Z,20.27
2022-11-03T06:58:51.506Z,26.50
2022-11-03T07:01:24.327Z,24.73
2022-11-03T07:04:18.380Z,29.35
2022-11-03T07:06:50.494Z,20.98
2022-11-03T07:09:25.961Z,32.70
2022-11-03T07:12:00.721Z,32.70
2022-11-03T07:14:28.335Z,38.42
2022-11-03T07:16:58.715Z,21.02
2022-11-03T07:19:33.197Z,25.77
2022-11-03T07:22:02.754Z,36.53
2022-11-03T07:24:38.784Z,42.45
2022-11-03T07:27:25.467Z,29.42
2022-11-03T07:29:57.027Z,23.65
2022-11-03T07:32:28.629Z,31.70
2022-11-03T07:35:15.507Z,34.38
2022-11-03T07:37:42.475Z,28.20
2022-11-03T07:40:18.342Z,25.80
2022-11-03T07:42:45.294Z,31.83
2022-11-03T07:45:39.875Z,35.08
2022-11-03T07:48:20.622Z,29.17
2022-11-03T07:50:49.167Z,27.58
2022-11-03T07:53:44.345Z,46.50
2022-11-03T07:56:20.800Z,31.10
2022-11-03T07:58:52.391Z,45.60
2022-11-03T08:01:35.130Z,30.30
2022-11-03T08:04:07.565Z,52.42
2022-11-03T08:06:34.525Z,35.13
2022-11-03T08:09:01.297Z,27.87
2022-11-03T08:11:29.568Z,30.17
2022-11-03T08:13:57.033Z,67.53
2022-11-03T08:16:23.768Z,40.73
2022-11-03T08:18:50.570Z,31.53
2022-11-03T08:21:17.494Z,41.03
2022-11-03T08:23:47.414Z,35.67
2022-11-03T08:26:15.433Z,34.23
2022-11-03T08:28:42.208Z,28.93
2022-11-03T08:31:12.621Z,26.77
2022-11-03T08:33:40.231Z,31.27
2022-11-03T08:36:08.459Z,27.17
2022-11-03T08:38:35.287Z,25.80
2022-11-03T08:41:02.342Z,28.03
2022-11-03T08:43:29.082Z,19.77
2022-11-03T08:45:56.210Z,21.30
2022-11-03T08:48:27.122Z,31.57
2022-11-03T08:50:54.635Z,28.57
2022-11-03T08:53:22.757Z,35.83
2022-11-03T08:55:49.495Z,24.13
2022-11-03T08:58:16.229Z,21.60
2022-11-03T09:00:43.293Z,30.33
2022-11-03T09:03:10.518Z,26.00
2022-11-03T09:05:37.339Z,20.93
2022-11-03T09:10:50.883Z,22.40
2022-11-03T09:13:17.715Z,23.40
2022-11-03T09:15:44.532Z,17.50
2022-11-03T09:18:11.357Z,22.53
2022-11-03T09:20:38.138Z,18.37
2022-11-03T09:23:04.923Z,20.97
2022-11-03T09:25:31.666Z,17.43
2022-11-03T09:27:58.420Z,19.70
2022-11-03T09:30:25.199Z,19.20
2022-11-03T09:32:51.936Z,20.80
2022-11-03T09:35:18.768Z,15.47
2022-11-03T09:37:45.483Z,17.70
2022-11-03T09:40:15.895Z,19.00
2022-11-03T09:42:43.325Z,15.90
2022-11-03T09:45:10.717Z,17.87
2022-11-03T09:47:40.950Z,16.33
2022-11-03T09:50:14.303Z,15.50
2022-11-03T09:52:41.246Z,17.07
2022-11-03T09:55:21.635Z,15.63
2022-11-03T09:57:48.454Z,15.80
2022-11-03T10:00:25.118Z,16.37
2022-11-03T10:02:51.894Z,13.57
2022-11-03T10:05:28.686Z,16.73
2022-11-03T10:08:00.845Z,11.63
2022-11-03T10:10:27.931Z,12.20
2022-11-03T10:12:55.359Z,11.30
2022-11-03T10:15:24.656Z,15.17
2022-11-03T10:17:51.962Z,15.10
2022-11-03T10:20:21.400Z,13.30
2022-11-03T10:22:52.553Z,14.27
2022-11-03T10:25:41.580Z,15.07
2022-11-03T10:28:18.872Z,16.80
2022-11-03T10:31:16.247Z,13.07
2022-11-03T10:33:55.745Z,10.93
2022-11-03T10:36:26.702Z,12.83
2022-11-03T10:38:54.464Z,12.70
2022-11-03T10:41:26.906Z,10.87
2022-11-03T10:44:12.447Z,9.80
2022-11-03T10:46:55.793Z,12.93
2022-11-03T10:49:22.932Z,12.60
2022-11-03T10:51:52.322Z,13.17
2022-11-03T10:54:21.299Z,12.80
2022-11-03T10:56:49.330Z,13.43
2022-11-03T10:59:22.324Z,11.47
2022-11-03T11:01:49.212Z,10.37
2022-11-03T11:04:18.217Z,10.10
2022-11-03T11:06:46.360Z,11.07
2022-11-03T11:09:17.521Z,9.43
2022-11-03T11:12:07.178Z,9.30
2022-11-03T11:14:39.388Z,10.17
2022-11-03T11:17:06.460Z,13.10
2022-11-03T11:20:11.770Z,9.10
2022-11-03T11:22:38.538Z,8.80
2022-11-03T11:25:05.411Z,11.43
2022-11-03T11:27:32.069Z,10.50
2022-11-03T11:30:00.424Z,8.80
2022-11-03T11:32:42.051Z,12.23
2022-11-03T11:35:16.220Z,14.00
2022-11-03T11:37:44.043Z,9.37
2022-11-03T11:40:34.782Z,13.23
2022-11-03T11:43:01.423Z,15.30
2022-11-03T11:46:05.798Z,11.57
2022-11-03T11:48:33.359Z,11.70
2022-11-03T11:51:00.995Z,10.50
2022-11-03T11:53:38.035Z,19.30
2022-11-03T11:56:05.161Z,13.20
2022-11-03T11:58:49.209Z,15.07
2022-11-03T12:01:33.121Z,10.90
2022-11-03T12:04:05.705Z,11.20
2022-11-03T12:06:38.210Z,14.00
2022-11-03T12:09:16.110Z,14.13
2022-11-03T12:11:50.216Z,15.03
2022-11-03T12:14:28.018Z,11.90
2022-11-03T12:16:56.014Z,11.43
2022-11-03T12:19:49.362Z,12.10
2022-11-03T12:22:24.962Z,14.00
2022-11-03T12:24:52.625Z,13.93
2022-11-03T12:27:21.218Z,14.50
2022-11-03T12:29:47.952Z,15.33
2022-11-03T12:32:32.207Z,13.60
2022-11-03T12:35:00.041Z,21.77
2022-11-03T12:37:26.818Z,15.30
2022-11-03T12:39:53.556Z,13.60
2022-11-03T12:42:21.073Z,16.93
2022-11-03T12:44:47.905Z,14.90
2022-11-03T12:47:14.747Z,18.93
2022-11-03T12:49:41.563Z,27.70
2022-11-03T12:52:08.676Z,16.33
2022-11-03T12:54:35.701Z,15.60
2022-11-03T12:57:02.751Z,15.60
2022-11-03T12:59:29.520Z,15.80
2022-11-03T13:01:56.496Z,21.03
2022-11-03T13:04:23.325Z,16.90
2022-11-03T13:06:50.159Z,19.50
2022-11-03T13:09:16.971Z,15.80
2022-11-03T13:12:02.417Z,18.20
2022-11-03T13:14:29.093Z,15.10
2022-11-03T13:16:55.885Z,14.77
2022-11-03T13:19:22.828Z,15.83
2022-11-03T13:21:49.690Z,16.90
2022-11-03T13:24:16.463Z,29.30
2022-11-03T13:26:43.182Z,17.70
2022-11-03T13:29:09.902Z,15.83
2022-11-03T13:31:36.939Z,17.40
2022-11-03T13:34:03.680Z,21.17
2022-11-03T13:36:30.509Z,21.47
2022-11-03T13:38:57.319Z,22.60
2022-11-03T13:41:24.042Z,19.90
2022-11-03T13:43:50.723Z,20.67
2022-11-03T13:46:17.405Z,19.70
2022-11-03T13:51:31.086Z,24.97
2022-11-03T13:59:31.349Z,21.20
2022-11-03T14:04:45.077Z,26.33
2022-11-03T14:07:12.043Z,29.03
2022-11-03T14:09:39.050Z,29.87
2022-11-03T14:12:24.814Z,30.70
2022-11-03T14:14:51.558Z,31.00
2022-11-03T14:17:18.244Z,33.10
2022-11-03T14:19:50.216Z,42.10
2022-11-03T14:22:20.155Z,36.90
2022-11-03T14:24:46.905Z,38.00
2022-11-03T14:27:15.698Z,36.27
2022-11-03T14:29:49.758Z,38.67
2022-11-03T14:32:17.713Z,38.10
2022-11-03T14:34:44.768Z,43.90
2022-11-03T14:37:12.940Z,52.13
2022-11-03T14:39:40.160Z,56.93
2022-11-03T14:42:20.196Z,43.37
2022-11-03T14:44:47.804Z,40.30
2022-11-03T14:47:17.892Z,41.00
2022-11-03T14:49:45.912Z,41.03
2022-11-03T14:52:13.273Z,36.93
2022-11-03T14:54:39.977Z,40.93
2022-11-03T14:57:06.858Z,46.13
2022-11-03T14:59:34.237Z,44.47
2022-11-03T15:02:01.891Z,39.50
2022-11-03T15:04:28.797Z,45.60
2022-11-03T15:06:55.726Z,40.77
2022-11-03T15:09:22.460Z,39.03
2022-11-03T15:11:49.275Z,42.37
2022-11-03T15:14:16.026Z,38.30
2022-11-03T15:16:43.909Z,42.47
2022-11-03T15:19:10.664Z,41.53
2022-11-03T15:21:37.460Z,37.63
2022-11-03T15:26:51.409Z,33.53
2022-11-03T15:29:18.144Z,38.97
2022-11-03T15:31:48.221Z,34.50
2022-11-03T15:34:15.978Z,35.17
2022-11-03T15:36:42.731Z,33.90
2022-11-03T15:39:09.623Z,45.63
2022-11-03T15:41:36.410Z,35.03
2022-11-03T15:44:03.232Z,38.00
2022-11-03T15:46:29.988Z,38.17
2022-11-03T15:48:57.745Z,33.43
2022-11-03T15:51:24.814Z,35.17
2022-11-03T15:53:56.950Z,31.67
2022-11-03T15:56:25.650Z,29.73
2022-11-03T15:58:52.390Z,27.33
2022-11-03T16:01:19.315Z,26.70
2022-11-03T16:03:46.258Z,29.67
2022-11-03T16:06:13.024Z,31.27
2022-11-03T16:08:39.823Z,33.30
2022-11-03T16:11:06.511Z,34.33
2022-11-03T16:13:33.254Z,34.50
2022-11-03T16:16:00.002Z,26.63
2022-11-03T16:18:26.700Z,33.20
2022-11-03T16:20:53.537Z,32.13
2022-11-03T16:23:20.299Z,29.40
2022-11-03T16:25:47.014Z,34.30
2022-11-03T16:28:13.816Z,28.87
2022-11-03T16:30:40.656Z,24.70
2022-11-03T16:33:07.586Z,28.07
2022-11-03T16:35:34.485Z,27.60
2022-11-03T16:38:01.363Z,25.83
2022-11-03T16:40:28.347Z,29.07
2022-11-03T16:42:55.478Z,26.80
2022-11-03T16:45:25.913Z,25.20
2022-11-03T16:47:52.767Z,25.17
2022-11-03T16:50:20.218Z,37.33
2022-11-03T16:52:48.417Z,32.70
2022-11-03T16:55:16.299Z,27.93
2022-11-03T16:57:43.521Z,29.53
2022-11-03T17:00:16.164Z,28.63
2022-11-03T17:02:43.061Z,32.43
2022-11-03T17:05:10.526Z,23.83
2022-11-03T17:07:37.593Z,26.83
2022-11-03T17:10:06.142Z,31.00
2022-11-03T17:12:33.100Z,23.73
2022-11-03T17:14:59.836Z,28.83
2022-11-03T17:17:26.562Z,27.77
2022-11-03T17:19:53.483Z,22.30
2022-11-03T17:22:22.989Z,26.20
2022-11-03T17:24:49.916Z,27.10
2022-11-03T17:27:32.498Z,26.10
2022-11-03T17:30:06.194Z,21.53
2022-11-03T17:32:39.118Z,23.80
2022-11-03T17:35:16.186Z,25.47
2022-11-03T17:37:43.081Z,29.07
2022-11-03T17:40:18.015Z,55.90
2022-11-03T17:42:44.838Z,60.83
2022-11-03T17:45:17.259Z,56.83
2022-11-03T17:47:43.988Z,65.30
2022-11-03T17:50:15.479Z,60.20
2022-11-03T17:52:45.512Z,65.23
2022-11-03T17:55:24.325Z,54.63
2022-11-03T17:57:51.034Z,70.57
2022-11-03T18:00:23.461Z,54.70
2022-11-03T18:02:51.385Z,49.03
2022-11-03T18:05:31.240Z,40.73
2022-11-03T18:08:05.764Z,41.13
2022-11-03T18:10:35.503Z,46.10
2022-11-03T18:13:16.608Z,45.80
2022-11-03T18:15:45.897Z,48.53
2022-11-03T18:18:16.376Z,43.00
2022-11-03T18:20:53.175Z,44.63
2022-11-03T18:23:23.950Z,52.70
2022-11-03T18:25:51.504Z,47.13
2022-11-03T18:28:18.696Z,45.10
2022-11-03T18:30:47.114Z,43.43
2022-11-03T18:33:35.727Z,48.77
2022-11-03T18:36:06.269Z,48.37
2022-11-03T18:38:35.164Z,50.13
2022-11-03T18:41:02.310Z,43.60
2022-11-03T18:43:29.125Z,43.50
2022-11-03T18:45:55.835Z,36.73
2022-11-03T18:48:22.606Z,43.73
2022-11-03T18:50:54.414Z,47.40
2022-11-03T18:53:24.546Z,48.63
2022-11-03T18:55:51.774Z,47.67
2022-11-03T18:58:22.147Z,59.30
2022-11-03T19:00:48.963Z,43.00
2022-11-03T19:03:18.242Z,43.07
2022-11-03T19:05:46.267Z,38.50
2022-11-03T19:08:31.611Z,42.00
2022-11-03T19:11:03.768Z,30.23
2022-11-03T19:13:36.414Z,24.37
2022-11-03T19:16:18.592Z,28.57
2022-11-03T19:18:45.466Z,30.63
2022-11-03T19:21:14.154Z,37.63
2022-11-03T19:23:41.747Z,40.40
2022-11-03T19:26:30.050Z,40.23
2022-11-03T19:29:00.361Z,39.87
2022-11-03T19:31:34.326Z,42.17
2022-11-03T19:34:01.909Z,47.37
2022-11-03T19:36:31.290Z,40.23
2022-11-03T19:39:01.072Z,48.70
2022-11-03T19:41:46.478Z,44.30
2022-11-03T19:44:13.739Z,36.70
2022-11-03T19:46:42.107Z,37.03
2022-11-03T19:49:13.833Z,33.57
2022-11-03T19:51:40.653Z,30.47
2022-11-03T19:54:21.159Z,24.97
2022-11-03T19:56:48.892Z,31.43
2022-11-03T19:59:16.911Z,24.30
2022-11-03T20:01:44.119Z,25.73
2022-11-03T20:04:10.963Z,25.00
2022-11-03T20:06:38.618Z,28.67
2022-11-03T20:09:07.568Z,24.97
2022-11-03T20:11:35.580Z,26.40
2022-11-03T20:14:04.011Z,25.50
2022-11-03T20:16:31.199Z,23.80
2022-11-03T20:18:58.022Z,23.83
2022-11-03T20:21:27.844Z,30.40
2022-11-03T20:23:59.793Z,35.93
2022-11-03T20:26:26.906Z,32.73
2022-11-03T20:28:58.763Z,30.60
2022-11-03T20:31:25.777Z,28.07
2022-11-03T20:33:52.510Z,27.73
2022-11-03T20:36:20.550Z,29.70
2022-11-03T20:39:01.363Z,21.30
2022-11-03T20:41:29.482Z,21.20
2022-11-03T20:43:56.989Z,16.63
2022-11-03T20:46:32.735Z,15.17
2022-11-03T20:48:59.682Z,27.00
2022-11-03T20:51:31.088Z,18.63
2022-11-03T20:53:59.344Z,20.67
2022-11-03T20:56:28.401Z,19.07
2022-11-03T20:58:56.032Z,25.63
2022-11-03T21:01:33.153Z,21.60
2022-11-03T21:04:01.805Z,27.90
2022-11-03T21:06:31.290Z,20.33
2022-11-03T21:08:58.771Z,22.47
2022-11-03T21:11:28.954Z,23.43
2022-11-03T21:13:57.081Z,28.53
2022-11-03T21:16:47.001Z,25.27
2022-11-03T21:19:41.036Z,26.40
2022-11-03T21:22:51.776Z,30.43
2022-11-03T21:25:15.335Z,26.40
2022-11-03T21:27:42.441Z,28.57
2022-11-03T21:30:16.078Z,54.13
2022-11-03T21:32:43.249Z,32.57
2022-11-03T21:35:15.259Z,28.40
2022-11-03T21:37:41.960Z,26.87
2022-11-03T21:40:10.322Z,25.10
2022-11-03T21:42:55.698Z,31.23
2022-11-03T21:45:22.446Z,27.73
2022-11-03T21:48:13.112Z,33.17
2022-11-03T21:50:40.728Z,30.30
2022-11-03T21:53:07.837Z,26.10
2022-11-03T21:55:35.244Z,30.87
2022-11-03T21:58:02.548Z,25.60
2022-11-03T22:00:29.419Z,25.43
2022-11-03T22:02:56.202Z,21.90
2022-11-03T22:05:22.915Z,23.23
2022-11-03T22:07:49.637Z,21.93
2022-11-03T22:10:16.365Z,21.83
2022-11-03T22:12:43.079Z,22.53
2022-11-03T22:15:28.666Z,21.20
2022-11-03T22:18:06.408Z,23.30
2022-11-03T22:20:54.385Z,20.60
2022-11-03T22:23:39.670Z,21.73
2022-11-03T22:26:29.019Z,26.50
2022-11-03T22:29:16.804Z,28.10
2022-11-03T22:31:43.622Z,44.37
2022-11-03T22:34:29.347Z,34.20
2022-11-03T22:36:56.055Z,26.20
2022-11-03T22:39:41.341Z,22.50
2022-11-03T22:42:29.531Z,21.93
2022-11-03T22:45:14.954Z,21.90
2022-11-03T22:47:41.686Z,25.30
2022-11-03T22:50:08.741Z,21.60
2022-11-03T22:52:35.515Z,25.83
2022-11-03T22:55:02.266Z,22.53
2022-11-03T22:57:28.940Z,18.53
2022-11-03T22:59:55.641Z,17.20
2022-11-03T23:02:22.431Z,14.80
2022-11-03T23:04:49.143Z,8.37
2022-11-03T23:07:15.874Z,7.60
2022-11-03T23:09:42.595Z,4.30
2022-11-03T23:12:09.256Z,4.70
2022-11-03T23:14:54.657Z,3.30
2022-11-03T23:17:41.338Z,6.53
2022-11-03T23:20:27.328Z,2.70
2022-11-03T23:22:54.054Z,2.13
2022-11-03T23:25:20.741Z,3.63
2022-11-03T23:27:47.574Z,3.27
2022-11-03T23:30:14.318Z,3.67
2022-11-03T23:32:40.979Z,2.27
2022-11-03T23:35:08.097Z,2.33
2022-11-03T23:37:34.908Z,2.10
2022-11-03T23:40:02.230Z,1.87
2022-11-03T23:42:29.013Z,3.33
2022-11-03T23:45:14.225Z,2.17
2022-11-03T23:47:59.628Z,3.33
2022-11-03T23:50:27.195Z,4.07
2022-11-03T23:52:53.968Z,2.80
2022-11-03T23:55:20.728Z,2.40
2022-11-03T23:58:06.241Z,3.33
